createdAt,value
2018-01-03T00:00:17.473Z,2.40
2018-01-03T00:02:21.637Z,3.23
2018-01-03T00:04:24.978Z,1.50
2018-01-03T00:06:28.385Z,1.57
2018-01-03T00:08:32.457Z,3.10
2018-01-03T00:10:39.507Z,1.40
2018-01-03T00:12:43.664Z,1.93
2018-01-03T00:14:46.979Z,1.40
2018-01-03T00:16:51.065Z,1.90
2018-01-03T00:18:55.227Z,1.87
2018-01-03T00:20:58.583Z,3.77
2018-01-03T00:23:01.932Z,1.67
2018-01-03T00:25:05.265Z,3.13
2018-01-03T00:27:08.647Z,1.60
2018-01-03T00:29:12.074Z,1.40
2018-01-03T00:31:15.403Z,2.70
2018-01-03T00:33:18.774Z,2.30
2018-01-03T00:35:22.124Z,1.57
2018-01-03T00:37:26.294Z,2.23
2018-01-03T00:39:29.642Z,3.47
2018-01-03T00:41:32.974Z,2.40
2018-01-03T00:43:36.302Z,2.00
2018-01-03T00:45:40.429Z,2.63
2018-01-03T00:47:43.782Z,2.60
2018-01-03T00:49:47.126Z,4.40
2018-01-03T00:51:50.453Z,4.17
2018-01-03T00:53:53.789Z,3.80
2018-01-03T00:55:57.149Z,2.57
2018-01-03T00:58:00.471Z,2.67
2018-01-03T01:00:03.857Z,3.50
2018-01-03T01:02:07.187Z,3.70
2018-01-03T01:04:10.500Z,4.00
2018-01-03T01:06:13.842Z,2.70
2018-01-03T01:08:17.198Z,5.50
2018-01-03T01:10:20.503Z,3.63
2018-01-03T01:12:23.844Z,3.93
2018-01-03T01:14:27.158Z,3.03
2018-01-03T01:16:30.541Z,2.47
2018-01-03T01:18:33.891Z,3.13
2018-01-03T01:20:37.231Z,2.27
2018-01-03T01:22:40.609Z,2.20
2018-01-03T01:24:43.951Z,3.20
2018-01-03T01:26:48.067Z,3.20
2018-01-03T01:28:51.413Z,2.90
2018-01-03T01:30:54.725Z,3.10
2018-01-03T01:32:58.090Z,4.70
2018-01-03T01:35:01.477Z,2.20
2018-01-03T01:37:04.784Z,3.30
2018-01-03T01:39:08.146Z,4.07
2018-01-03T01:41:11.516Z,2.77
2018-01-03T01:43:14.919Z,2.50
2018-01-03T01:45:18.253Z,2.53
2018-01-03T01:47:21.601Z,3.30
2018-01-03T01:49:24.982Z,3.30
2018-01-03T01:51:29.104Z,3.03
2018-01-03T01:53:32.430Z,2.70
2018-01-03T01:55:35.792Z,4.70
2018-01-03T01:57:39.099Z,4.77
2018-01-03T01:59:42.458Z,3.70
2018-01-03T02:01:45.780Z,12.90
2018-01-03T02:03:49.138Z,7.13
2018-01-03T02:05:52.510Z,3.70
2018-01-03T02:07:55.851Z,5.30
2018-01-03T02:09:59.234Z,6.73
2018-01-03T02:12:02.595Z,3.73
2018-01-03T02:14:05.932Z,5.70
2018-01-03T02:16:09.290Z,3.73
2018-01-03T02:18:12.623Z,6.60
2018-01-03T02:20:16.014Z,3.90
2018-01-03T02:22:21.045Z,5.80
2018-01-03T02:24:24.449Z,6.33
2018-01-03T02:26:28.601Z,6.90
2018-01-03T02:28:33.259Z,5.83
2018-01-03T02:30:36.621Z,3.60
2018-01-03T02:32:39.976Z,6.50
2018-01-03T02:34:43.342Z,3.67
2018-01-03T02:36:46.727Z,5.43
2018-01-03T02:38:50.043Z,4.10
2018-01-03T02:40:54.175Z,5.77
2018-01-03T02:42:58.256Z,3.67
2018-01-03T02:45:01.595Z,6.43
2018-01-03T02:47:04.941Z,3.10
2018-01-03T02:49:08.273Z,2.83
2018-01-03T02:51:12.395Z,4.50
2018-01-03T02:53:15.716Z,3.00
2018-01-03T02:55:19.029Z,4.53
2018-01-03T02:57:22.374Z,4.30
2018-01-03T02:59:25.706Z,4.00
2018-01-03T03:01:29.828Z,2.53
2018-01-03T03:03:33.205Z,2.90
2018-01-03T03:05:36.560Z,4.00
2018-01-03T03:07:39.925Z,2.90
2018-01-03T03:09:44.010Z,2.10
2018-01-03T03:11:48.130Z,4.10
2018-01-03T03:13:51.494Z,5.37
2018-01-03T03:15:54.809Z,5.73
2018-01-03T03:17:58.144Z,2.80
2018-01-03T03:20:01.467Z,2.83
2018-01-03T03:22:04.779Z,10.60
2018-01-03T03:24:08.899Z,3.90
2018-01-03T03:26:13.017Z,6.27
2018-01-03T03:28:16.372Z,3.83
2018-01-03T03:30:19.684Z,4.07
2018-01-03T03:32:23.772Z,5.90
2018-01-03T03:34:27.912Z,4.23
2018-01-03T03:36:31.995Z,3.83
2018-01-03T03:38:35.416Z,2.60
2018-01-03T03:40:39.498Z,4.20
2018-01-03T03:42:42.813Z,6.67
2018-01-03T03:44:46.928Z,4.17
2018-01-03T03:46:51.027Z,4.20
2018-01-03T03:48:54.406Z,2.67
2018-01-03T03:50:57.715Z,1.80
2018-01-03T03:53:01.823Z,6.43
2018-01-03T03:55:05.916Z,2.17
2018-01-03T03:57:09.221Z,1.43
2018-01-03T03:59:13.368Z,4.47
2018-01-03T04:01:16.726Z,1.50
2018-01-03T04:03:20.055Z,1.90
2018-01-03T04:05:23.391Z,1.63
2018-01-03T04:07:26.709Z,5.80
2018-01-03T04:09:30.075Z,2.20
2018-01-03T04:11:33.385Z,2.50
2018-01-03T04:13:36.760Z,4.23
2018-01-03T04:15:40.101Z,3.20
2018-01-03T04:17:43.412Z,2.77
2018-01-03T04:19:46.760Z,2.20
2018-01-03T04:21:50.064Z,1.60
2018-01-03T04:23:53.423Z,1.50
2018-01-03T04:25:57.549Z,1.80
2018-01-03T04:28:00.870Z,2.63
2018-01-03T04:30:04.275Z,1.50
2018-01-03T04:32:07.606Z,1.67
2018-01-03T04:34:11.675Z,1.50
2018-01-03T04:36:15.065Z,1.20
2018-01-03T04:38:18.371Z,1.70
2018-01-03T04:40:21.808Z,5.37
2018-01-03T04:42:25.119Z,2.10
2018-01-03T04:44:28.501Z,1.50
2018-01-03T04:46:31.841Z,1.20
2018-01-03T04:48:35.205Z,1.93
2018-01-03T04:50:38.555Z,1.63
2018-01-03T04:52:42.642Z,1.30
2018-01-03T04:54:46.796Z,2.60
2018-01-03T04:56:50.204Z,1.30
2018-01-03T04:58:53.523Z,1.63
2018-01-03T05:00:57.738Z,1.80
2018-01-03T05:03:01.830Z,1.20
2018-01-03T05:05:05.145Z,1.20
2018-01-03T05:07:08.501Z,1.23
2018-01-03T05:09:11.863Z,3.53
2018-01-03T05:11:15.263Z,1.20
2018-01-03T05:13:18.750Z,3.70
2018-01-03T05:15:22.865Z,1.70
2018-01-03T05:17:26.461Z,1.63
2018-01-03T05:19:30.632Z,1.20
2018-01-03T05:21:35.624Z,1.20
2018-01-03T05:23:39.103Z,1.20
2018-01-03T05:25:42.457Z,1.40
2018-01-03T05:27:46.743Z,1.60
2018-01-03T05:29:50.097Z,1.67
2018-01-03T05:31:53.489Z,5.90
2018-01-03T05:33:56.837Z,2.07
2018-01-03T05:36:00.204Z,1.20
2018-01-03T05:38:04.592Z,1.93
2018-01-03T05:40:09.118Z,2.40
2018-01-03T05:42:12.457Z,3.10
2018-01-03T05:44:15.861Z,1.83
2018-01-03T05:46:21.731Z,0.97
2018-01-03T05:48:25.168Z,1.53
2018-01-03T05:50:29.049Z,1.13
2018-01-03T05:52:32.461Z,1.83
2018-01-03T05:54:35.880Z,1.33
2018-01-03T05:56:40.633Z,1.60
2018-01-03T05:58:44.972Z,1.83
2018-01-03T06:00:48.313Z,1.57
2018-01-03T06:02:54.364Z,1.00
2018-01-03T06:04:57.817Z,1.30
2018-01-03T06:07:05.368Z,3.00
2018-01-03T06:09:11.887Z,2.23
2018-01-03T06:11:17.692Z,6.37
2018-01-03T06:13:21.897Z,3.73
2018-01-03T06:15:25.700Z,4.87
2018-01-03T06:17:31.360Z,4.93
2018-01-03T06:19:35.533Z,8.70
2018-01-03T06:21:38.973Z,6.80
2018-01-03T06:23:42.310Z,9.53
2018-01-03T06:25:46.400Z,5.80
2018-01-03T06:27:51.104Z,8.83
2018-01-03T06:29:55.411Z,6.43
2018-01-03T06:32:00.215Z,3.50
2018-01-03T06:34:03.658Z,7.00
2018-01-03T06:36:07.203Z,16.93
2018-01-03T06:38:13.907Z,11.37
2018-01-03T06:40:18.668Z,6.77
2018-01-03T06:42:23.007Z,4.60
2018-01-03T06:44:27.544Z,5.60
2018-01-03T06:46:30.948Z,4.30
2018-01-03T06:48:34.284Z,3.77
2018-01-03T06:50:37.745Z,5.53
2018-01-03T06:52:41.285Z,10.60
2018-01-03T06:54:44.602Z,9.03
2018-01-03T06:56:48.006Z,7.27
2018-01-03T06:58:51.478Z,2.43
2018-01-03T07:00:54.888Z,4.30
2018-01-03T07:02:58.256Z,11.47
2018-01-03T07:05:02.383Z,5.70
2018-01-03T07:07:06.012Z,4.53
2018-01-03T07:09:10.265Z,2.23
2018-01-03T07:11:13.670Z,5.40
2018-01-03T07:13:19.343Z,6.90
2018-01-03T07:15:22.707Z,3.50
2018-01-03T07:17:27.689Z,4.73
2018-01-03T07:19:31.091Z,4.83
2018-01-03T07:21:34.756Z,4.33
2018-01-03T07:23:38.686Z,5.93
2018-01-03T07:25:42.726Z,8.10
2018-01-03T07:27:47.060Z,5.17
2018-01-03T07:29:51.167Z,6.97
2018-01-03T07:31:54.609Z,7.90
2018-01-03T07:33:58.037Z,5.90
2018-01-03T07:36:02.163Z,9.17
2018-01-03T07:38:06.332Z,6.53
2018-01-03T07:40:09.728Z,15.80
2018-01-03T07:42:13.876Z,8.23
2018-01-03T07:44:17.284Z,5.80
2018-01-03T07:46:20.630Z,8.40
2018-01-03T07:48:24.050Z,10.47
2018-01-03T07:50:28.180Z,9.17
2018-01-03T07:52:31.515Z,4.40
2018-01-03T07:54:35.867Z,4.90
2018-01-03T07:56:39.939Z,8.93
2018-01-03T07:58:43.314Z,2.70
2018-01-03T08:00:46.870Z,5.93
2018-01-03T08:02:50.381Z,10.00
2018-01-03T08:04:54.571Z,9.97
2018-01-03T08:06:57.969Z,6.10
2018-01-03T08:09:01.417Z,14.50
2018-01-03T08:11:04.776Z,4.00
2018-01-03T08:13:09.240Z,7.50
2018-01-03T08:15:12.607Z,4.90
2018-01-03T08:17:15.999Z,6.20
2018-01-03T08:19:19.453Z,10.53
2018-01-03T08:21:22.742Z,8.20
2018-01-03T08:23:26.129Z,6.30
2018-01-03T08:25:30.345Z,3.30
2018-01-03T08:27:33.654Z,6.57
2018-01-03T08:29:37.405Z,2.17
2018-01-03T08:31:40.780Z,4.90
2018-01-03T08:33:44.915Z,6.43
2018-01-03T08:35:48.818Z,4.53
2018-01-03T08:37:52.140Z,3.13
2018-01-03T08:39:55.609Z,5.27
2018-01-03T08:41:58.951Z,10.50
2018-01-03T08:44:03.345Z,7.37
2018-01-03T08:46:06.718Z,3.13
2018-01-03T08:48:10.878Z,2.37
2018-01-03T08:50:15.035Z,3.40
2018-01-03T08:52:21.811Z,3.47
2018-01-03T08:54:26.077Z,2.47
2018-01-03T08:56:30.279Z,2.07
2018-01-03T08:58:33.684Z,3.43
2018-01-03T09:00:37.068Z,6.90
2018-01-03T09:02:40.543Z,3.10
2018-01-03T09:04:43.904Z,5.27
2018-01-03T09:06:49.220Z,2.03
2018-01-03T09:08:54.836Z,1.80
2018-01-03T09:10:58.236Z,3.73
2018-01-03T09:13:01.713Z,2.10
2018-01-03T09:15:05.928Z,3.43
2018-01-03T09:17:11.017Z,2.77
2018-01-03T09:19:14.754Z,4.40
2018-01-03T09:21:18.386Z,1.47
2018-01-03T09:23:21.749Z,2.57
2018-01-03T09:25:25.092Z,6.47
2018-01-03T09:27:31.214Z,5.43
2018-01-03T09:29:34.585Z,1.83
2018-01-03T09:31:37.945Z,3.83
2018-01-03T09:33:41.400Z,2.63
2018-01-03T09:35:44.766Z,3.37
2018-01-03T09:37:48.157Z,3.10
2018-01-03T09:39:52.353Z,4.83
2018-01-03T09:41:56.696Z,12.57
2018-01-03T09:44:00.921Z,3.63
2018-01-03T09:46:04.272Z,4.70
2018-01-03T09:48:07.641Z,7.50
2018-01-03T09:50:11.779Z,10.83
2018-01-03T09:52:15.492Z,2.83
2018-01-03T09:54:18.936Z,3.60
2018-01-03T09:56:24.422Z,2.90
2018-01-03T09:58:27.794Z,4.60
2018-01-03T10:00:31.156Z,6.10
2018-01-03T10:02:35.269Z,4.00
2018-01-03T10:04:38.638Z,3.33
2018-01-03T10:06:41.984Z,6.47
2018-01-03T10:08:45.685Z,3.47
2018-01-03T10:10:49.018Z,4.30
2018-01-03T10:12:52.426Z,6.87
2018-01-03T10:14:55.797Z,8.23
2018-01-03T10:16:59.128Z,5.90
2018-01-03T10:19:03.740Z,3.40
2018-01-03T10:21:07.594Z,2.07
2018-01-03T10:23:11.926Z,7.40
2018-01-03T10:25:15.363Z,9.77
2018-01-03T10:27:18.739Z,7.10
2018-01-03T10:29:23.454Z,8.20
2018-01-03T10:31:26.897Z,6.60
2018-01-03T10:33:30.224Z,13.73
2018-01-03T10:35:33.599Z,4.83
2018-01-03T10:37:36.939Z,14.83
2018-01-03T10:39:42.568Z,13.83
2018-01-03T10:41:46.975Z,7.33
2018-01-03T10:43:50.340Z,6.20
2018-01-03T10:45:53.760Z,15.20
2018-01-03T10:47:57.962Z,14.23
2018-01-03T10:50:01.349Z,9.70
2018-01-03T10:52:04.683Z,10.13
2018-01-03T10:54:08.558Z,11.83
2018-01-03T10:56:11.908Z,10.20
2018-01-03T10:58:15.223Z,10.87
2018-01-03T11:00:18.574Z,10.10
2018-01-03T11:02:21.986Z,7.97
2018-01-03T11:04:26.057Z,5.00
2018-01-03T11:06:30.208Z,11.60
2018-01-03T11:08:33.621Z,11.43
2018-01-03T11:10:37.780Z,14.57
2018-01-03T11:12:41.271Z,5.23
2018-01-03T11:14:46.397Z,18.50
2018-01-03T11:16:50.526Z,12.67
2018-01-03T11:18:53.912Z,13.47
2018-01-03T11:20:57.330Z,9.23
2018-01-03T11:23:00.741Z,15.53
2018-01-03T11:25:04.171Z,8.70
2018-01-03T11:27:07.697Z,19.83
2018-01-03T11:29:11.030Z,18.73
2018-01-03T11:31:15.837Z,9.23
2018-01-03T11:33:19.867Z,12.43
2018-01-03T11:35:23.261Z,17.90
2018-01-03T11:37:26.628Z,12.43
2018-01-03T11:39:30.011Z,11.80
2018-01-03T11:41:33.691Z,15.03
2018-01-03T11:43:38.452Z,9.50
2018-01-03T11:45:42.631Z,5.90
2018-01-03T11:47:46.024Z,9.60
2018-01-03T11:49:49.404Z,8.40
2018-01-03T11:51:53.520Z,15.40
2018-01-03T11:53:57.381Z,23.10
2018-01-03T11:56:01.494Z,5.50
2018-01-03T11:58:04.834Z,10.93
2018-01-03T12:00:08.227Z,7.47
2018-01-03T12:02:13.317Z,19.63
2018-01-03T12:04:18.705Z,4.63
2018-01-03T12:06:22.149Z,8.87
2018-01-03T12:08:27.164Z,6.60
2018-01-03T12:10:31.397Z,7.90
2018-01-03T12:12:35.709Z,5.63
2018-01-03T12:14:39.941Z,9.03
2018-01-03T12:16:44.689Z,7.13
2018-01-03T12:18:49.382Z,4.67
2018-01-03T12:20:53.947Z,9.63
2018-01-03T12:22:57.757Z,18.17
2018-01-03T12:25:03.340Z,9.03
2018-01-03T12:27:07.219Z,13.47
2018-01-03T12:29:13.717Z,19.03
2018-01-03T12:31:17.881Z,15.80
2018-01-03T12:33:22.393Z,14.10
2018-01-03T12:35:27.808Z,7.30
2018-01-03T12:37:31.373Z,10.27
2018-01-03T12:39:35.072Z,9.60
2018-01-03T12:41:41.558Z,8.93
2018-01-03T12:43:45.374Z,8.77
2018-01-03T12:45:48.705Z,11.97
2018-01-03T12:47:52.162Z,14.40
2018-01-03T12:49:58.343Z,12.83
2018-01-03T12:52:03.900Z,14.27
2018-01-03T12:54:08.601Z,18.40
2018-01-03T12:56:12.375Z,13.60
2018-01-03T12:58:16.618Z,7.30
2018-01-03T13:00:21.187Z,11.57
2018-01-03T13:02:26.825Z,17.80
2018-01-03T13:04:30.401Z,10.33
2018-01-03T13:06:34.748Z,6.80
2018-01-03T13:08:38.733Z,12.17
2018-01-03T13:10:42.531Z,14.80
2018-01-03T13:12:46.022Z,14.07
2018-01-03T13:14:50.170Z,11.60
2018-01-03T13:16:55.375Z,19.63
2018-01-03T13:18:58.944Z,13.33
2018-01-03T13:21:05.269Z,14.20
2018-01-03T13:23:10.908Z,15.20
2018-01-03T13:25:14.451Z,18.27
2018-01-03T13:27:18.440Z,12.17
2018-01-03T13:29:29.079Z,18.93
2018-01-03T13:31:34.226Z,10.10
2018-01-03T13:33:38.888Z,13.17
2018-01-03T13:35:42.294Z,15.77
2018-01-03T13:37:45.637Z,18.63
2018-01-03T13:39:49.002Z,23.47
2018-01-03T13:41:52.418Z,23.47
2018-01-03T13:43:55.814Z,20.60
2018-01-03T13:45:59.250Z,28.80
2018-01-03T13:48:02.570Z,33.53
2018-01-03T13:50:05.973Z,23.03
2018-01-03T13:52:09.328Z,17.37
2018-01-03T13:54:12.679Z,24.40
2018-01-03T13:56:16.067Z,18.33
2018-01-03T13:58:19.406Z,20.43
2018-01-03T14:00:22.778Z,16.40
2018-01-03T14:02:27.104Z,19.90
2018-01-03T14:04:31.218Z,21.53
2018-01-03T14:06:34.631Z,13.97
2018-01-03T14:08:43.014Z,23.90
2018-01-03T14:10:48.648Z,17.70
2018-01-03T14:12:53.118Z,13.83
2018-01-03T14:14:59.590Z,22.20
2018-01-03T14:17:05.289Z,32.40
2018-01-03T14:19:09.918Z,23.33
2018-01-03T14:21:16.238Z,18.17
2018-01-03T14:23:21.498Z,18.53
2018-01-03T14:25:27.317Z,20.80
2018-01-03T14:27:31.535Z,15.97
2018-01-03T14:29:35.691Z,17.07
2018-01-03T14:31:39.738Z,19.00
2018-01-03T14:33:45.203Z,14.90
2018-01-03T14:38:02.364Z,12.43
2018-01-03T14:40:06.478Z,21.03
2018-01-03T14:42:11.356Z,16.93
2018-01-03T14:44:20.558Z,9.57
2018-01-03T14:46:27.972Z,20.83
2018-01-03T14:48:32.015Z,20.03
2018-01-03T14:50:36.146Z,13.13
2018-01-03T14:52:40.821Z,16.77
2018-01-03T14:54:45.087Z,11.03
2018-01-03T14:56:48.552Z,12.80
2018-01-03T14:58:53.822Z,16.97
2018-01-03T15:00:57.272Z,17.67
2018-01-03T15:03:01.025Z,26.53
2018-01-03T15:05:04.428Z,16.20
2018-01-03T15:07:07.796Z,23.13
2018-01-03T15:09:11.258Z,23.83
2018-01-03T15:11:16.281Z,25.67
2018-01-03T15:13:21.475Z,22.83
2018-01-03T15:15:24.825Z,18.80
2018-01-03T15:17:28.927Z,25.13
2018-01-03T15:19:32.893Z,17.43
2018-01-03T15:21:36.261Z,32.60
2018-01-03T15:23:39.616Z,21.70
2018-01-03T15:25:43.007Z,19.70
2018-01-03T15:27:47.206Z,17.63
2018-01-03T15:29:50.642Z,18.67
2018-01-03T15:31:54.011Z,26.27
2018-01-03T15:33:58.160Z,11.93
2018-01-03T15:36:02.561Z,14.97
2018-01-03T15:38:07.287Z,25.00
2018-01-03T15:40:11.615Z,25.53
2018-01-03T15:42:14.966Z,18.40
2018-01-03T15:44:19.147Z,22.03
2018-01-03T15:46:22.843Z,21.73
2018-01-03T15:48:26.192Z,23.63
2018-01-03T15:50:29.557Z,22.13
2018-01-03T15:52:32.926Z,22.30
2018-01-03T15:54:36.245Z,32.93
2018-01-03T15:56:39.652Z,19.10
2018-01-03T15:58:43.789Z,27.07
2018-01-03T16:00:47.352Z,23.67
2018-01-03T16:02:50.738Z,20.23
2018-01-03T16:04:54.177Z,24.33
2018-01-03T16:06:58.318Z,33.63
2018-01-03T16:09:01.664Z,32.33
2018-01-03T16:11:05.042Z,22.50
2018-01-03T16:13:08.487Z,15.80
2018-01-03T16:15:11.822Z,24.97
2018-01-03T16:17:16.138Z,26.83
2018-01-03T16:19:22.073Z,19.83
2018-01-03T16:21:27.068Z,37.87
2018-01-03T16:23:30.399Z,36.37
2018-01-03T16:25:35.430Z,22.87
2018-01-03T16:27:39.763Z,20.23
2018-01-03T16:29:44.060Z,23.90
2018-01-03T16:31:48.068Z,24.57
2018-01-03T16:33:51.488Z,30.90
2018-01-03T16:35:57.498Z,19.30
2018-01-03T16:38:01.187Z,22.47
2018-01-03T16:40:04.606Z,27.83
2018-01-03T16:42:09.185Z,28.70
2018-01-03T16:44:13.395Z,26.63
2018-01-03T16:46:17.454Z,33.20
2018-01-03T16:48:21.708Z,25.47
2018-01-03T16:50:25.082Z,27.17
2018-01-03T16:52:35.793Z,21.53
2018-01-03T16:54:40.050Z,23.63
2018-01-03T16:56:43.783Z,35.60
2018-01-03T16:58:47.177Z,25.47
2018-01-03T17:00:50.534Z,28.60
2018-01-03T17:02:54.188Z,24.63
2018-01-03T17:04:57.708Z,30.33
2018-01-03T17:07:01.098Z,22.83
2018-01-03T17:09:04.473Z,22.87
2018-01-03T17:11:07.811Z,25.17
2018-01-03T17:13:11.218Z,22.53
2018-01-03T17:15:14.587Z,18.57
2018-01-03T17:17:17.998Z,35.97
2018-01-03T17:19:21.390Z,20.40
2018-01-03T17:21:24.708Z,20.40
2018-01-03T17:23:28.206Z,27.30
2018-01-03T17:25:31.636Z,28.27
2018-01-03T17:27:36.565Z,32.23
2018-01-03T17:29:40.844Z,14.50
2018-01-03T17:31:44.472Z,21.03
2018-01-03T17:33:48.587Z,25.00
2018-01-03T17:35:53.032Z,28.93
2018-01-03T17:37:56.362Z,29.60
2018-01-03T17:39:59.763Z,22.27
2018-01-03T17:42:03.990Z,20.50
2018-01-03T17:44:08.085Z,18.70
2018-01-03T17:46:12.296Z,21.50
2018-01-03T17:48:16.449Z,27.70
2018-01-03T17:50:19.785Z,29.00
2018-01-03T17:52:23.262Z,28.53
2018-01-03T17:54:26.608Z,24.00
2018-01-03T17:56:31.809Z,29.47
2018-01-03T17:58:36.543Z,27.87
2018-01-03T18:00:40.044Z,38.07
2018-01-03T18:02:44.298Z,32.50
2018-01-03T18:04:48.471Z,31.70
2018-01-03T18:06:52.065Z,32.00
2018-01-03T18:08:55.422Z,59.40
2018-01-03T18:10:58.848Z,40.80
2018-01-03T18:13:02.959Z,50.13
2018-01-03T18:15:07.063Z,34.20
2018-01-03T18:17:11.224Z,41.10
2018-01-03T18:19:15.312Z,48.50
2018-01-03T18:21:19.608Z,27.57
2018-01-03T18:23:23.736Z,38.13
2018-01-03T18:25:28.232Z,30.43
2018-01-03T18:27:32.441Z,28.53
2018-01-03T18:29:35.771Z,29.37
2018-01-03T18:31:39.204Z,37.47
2018-01-03T18:33:43.748Z,27.10
2018-01-03T18:35:48.143Z,32.23
2018-01-03T18:37:52.115Z,37.43
2018-01-03T18:39:56.241Z,20.33
2018-01-03T18:42:03.006Z,37.80
2018-01-03T18:44:07.531Z,19.70
2018-01-03T18:46:11.770Z,19.03
2018-01-03T18:48:16.592Z,25.40
2018-01-03T18:50:20.482Z,26.47
2018-01-03T18:52:25.105Z,30.90
2018-01-03T18:54:29.470Z,32.07
2018-01-03T18:56:33.807Z,28.10
2018-01-03T18:58:37.812Z,35.50
2018-01-03T19:00:42.546Z,24.33
2018-01-03T19:02:49.616Z,20.97
2018-01-03T19:04:54.198Z,21.97
2018-01-03T19:06:57.692Z,19.57
2018-01-03T19:09:01.303Z,24.10
2018-01-03T19:11:05.532Z,19.30
2018-01-03T19:13:09.957Z,28.07
2018-01-03T19:15:13.486Z,30.23
2018-01-03T19:17:17.260Z,34.37
2018-01-03T19:19:21.372Z,26.77
2018-01-03T19:21:25.798Z,30.47
2018-01-03T19:23:29.475Z,29.63
2018-01-03T19:25:33.058Z,21.60
2018-01-03T19:27:36.449Z,17.03
2018-01-03T19:29:39.787Z,29.10
2018-01-03T19:31:43.220Z,20.03
2018-01-03T19:33:46.672Z,47.90
2018-01-03T19:35:50.161Z,34.90
2018-01-03T19:37:54.942Z,25.83
2018-01-03T19:39:58.662Z,25.87
2018-01-03T19:42:02.316Z,31.97
2018-01-03T19:44:06.555Z,32.00
2018-01-03T19:46:10.059Z,27.80
2018-01-03T19:48:15.173Z,33.33
2018-01-03T19:50:19.281Z,31.83
2018-01-03T19:52:23.419Z,38.33
2018-01-03T19:54:26.762Z,32.87
2018-01-03T19:56:30.257Z,29.47
2018-01-03T19:58:33.679Z,28.00
2018-01-03T20:00:37.032Z,28.40
2018-01-03T20:02:40.454Z,22.23
2018-01-03T20:04:44.566Z,24.40
2018-01-03T20:06:47.968Z,28.63
2018-01-03T20:08:51.529Z,22.37
2018-01-03T20:10:55.077Z,29.43
2018-01-03T20:12:58.498Z,31.70
2018-01-03T20:15:02.719Z,22.37
2018-01-03T20:17:07.123Z,30.13
2018-01-03T20:19:11.268Z,26.03
2018-01-03T20:21:15.428Z,25.07
2018-01-03T20:23:18.789Z,18.40
2018-01-03T20:25:22.253Z,26.60
2018-01-03T20:27:26.457Z,27.60
2018-01-03T20:29:30.723Z,29.20
2018-01-03T20:31:34.199Z,18.20
2018-01-03T20:33:37.664Z,23.97
2018-01-03T20:35:41.873Z,30.97
2018-01-03T20:37:46.843Z,23.70
2018-01-03T20:39:52.788Z,27.73
2018-01-03T20:41:56.318Z,30.93
2018-01-03T20:44:00.505Z,28.20
2018-01-03T20:46:04.662Z,24.80
2018-01-03T20:48:08.242Z,27.83
2018-01-03T20:50:12.286Z,28.93
2018-01-03T20:52:16.908Z,23.13
2018-01-03T20:54:21.301Z,31.93
2018-01-03T20:56:25.630Z,28.37
2018-01-03T20:58:29.183Z,37.87
2018-01-03T21:00:33.322Z,28.73
2018-01-03T21:02:38.020Z,32.33
2018-01-03T21:04:41.409Z,35.07
2018-01-03T21:06:45.187Z,28.90
2018-01-03T21:08:49.362Z,18.37
2018-01-03T21:10:53.318Z,19.63
2018-01-03T21:12:57.614Z,18.50
2018-01-03T21:15:01.063Z,25.23
2018-01-03T21:17:04.451Z,16.77
2018-01-03T21:19:07.828Z,29.43
2018-01-03T21:21:11.487Z,21.50
2018-01-03T21:23:16.382Z,34.17
2018-01-03T21:25:21.700Z,24.07
2018-01-03T21:27:26.878Z,24.43
2018-01-03T21:29:30.355Z,18.57
2018-01-03T21:31:33.847Z,33.10
2018-01-03T21:33:37.967Z,19.03
2018-01-03T21:35:42.078Z,34.03
2018-01-03T21:37:45.841Z,25.73
2018-01-03T21:39:49.206Z,32.20
2018-01-03T21:41:52.622Z,19.20
2018-01-03T21:43:56.017Z,20.87
2018-01-03T21:46:00.196Z,16.03
2018-01-03T21:48:04.378Z,19.00
2018-01-03T21:50:07.784Z,22.23
2018-01-03T21:52:11.156Z,21.47
2018-01-03T21:54:15.265Z,21.70
2018-01-03T21:56:18.687Z,24.43
2018-01-03T21:58:22.858Z,25.30
2018-01-03T22:00:26.982Z,24.57
2018-01-03T22:02:30.433Z,23.80
2018-01-03T22:04:34.624Z,28.87
2018-01-03T22:06:37.980Z,32.57
2018-01-03T22:08:42.225Z,40.20
2018-01-03T22:10:46.521Z,43.87
2018-01-03T22:12:49.920Z,34.87
2018-01-03T22:14:53.272Z,25.53
2018-01-03T22:16:57.311Z,37.77
2018-01-03T22:19:01.534Z,35.43
2018-01-03T22:21:04.875Z,21.73
2018-01-03T22:23:09.088Z,29.43
2018-01-03T22:25:12.459Z,32.20
2018-01-03T22:27:15.981Z,23.13
2018-01-03T22:29:19.361Z,34.13
2018-01-03T22:31:22.720Z,40.83
2018-01-03T22:33:26.068Z,27.30
2018-01-03T22:35:32.389Z,30.27
2018-01-03T22:37:36.160Z,45.83
2018-01-03T22:39:39.598Z,44.17
2018-01-03T22:41:42.918Z,34.43
2018-01-03T22:43:46.367Z,32.30
2018-01-03T22:45:49.702Z,43.77
2018-01-03T22:47:53.065Z,25.13
2018-01-03T22:49:56.431Z,37.40
2018-01-03T22:51:59.781Z,25.23
2018-01-03T22:54:03.909Z,23.57
2018-01-03T22:56:07.990Z,34.23
2018-01-03T22:58:11.329Z,18.53
2018-01-03T23:00:15.547Z,21.20
2018-01-03T23:02:18.890Z,20.73
2018-01-03T23:04:22.251Z,29.50
2018-01-03T23:06:25.578Z,21.67
2018-01-03T23:08:28.927Z,18.10
2018-01-03T23:10:32.293Z,16.40
2018-01-03T23:12:35.632Z,23.33
2018-01-03T23:14:38.989Z,20.43
2018-01-03T23:16:42.370Z,19.37
2018-01-03T23:18:45.747Z,13.50
2018-01-03T23:20:49.067Z,26.10
2018-01-03T23:22:53.169Z,29.03
2018-01-03T23:24:56.554Z,31.10
2018-01-03T23:26:59.864Z,21.87
2018-01-03T23:29:03.216Z,37.20
2018-01-03T23:31:06.586Z,18.73
2018-01-03T23:33:09.921Z,21.23
2018-01-03T23:35:13.287Z,24.03
2018-01-03T23:37:17.378Z,17.63
2018-01-03T23:39:20.732Z,37.43
2018-01-03T23:41:24.079Z,20.93
2018-01-03T23:43:28.166Z,20.03
2018-01-03T23:45:31.522Z,20.73
2018-01-03T23:47:34.839Z,28.80
2018-01-03T23:49:38.611Z,18.13
2018-01-03T23:51:42.018Z,32.70
2018-01-03T23:53:46.168Z,28.70
2018-01-03T23:55:49.544Z,22.50
2018-01-03T23:57:52.946Z,28.93
2018-01-03T23:59:56.327Z,33.33
